Time;durP1;ratioP1;P1;durP2;ratioP2;P2;SDS_P1;SDS_P2;PMS_P1;PMS_P2;Temp;Humidity;BMP_temperature;BMP_pressure;BME280_temperature;BME280_humidity;BME280_pressure;Samples;Min_cycle;Max_cycle;Signal;HPM_P1;HPM_P2
2023/07/04 00:01:07;;;;;;;15.30;6.80;;;20.30;69.80;;;;;;5054348;28;20497;-50
2023/07/04 00:03:35;;;;;;;7.90;4.63;;;20.20;69.90;;;;;;5054457;28;20500;-50
2023/07/04 00:06:04;;;;;;;9.63;4.93;;;20.20;70.10;;;;;;5053812;28;20456;-49
2023/07/04 00:08:33;;;;;;;9.23;5.23;;;20.20;70.00;;;;;;5053395;28;20515;-49
2023/07/04 00:11:01;;;;;;;7.70;4.60;;;20.20;70.10;;;;;;5053308;28;20526;-50
2023/07/04 00:13:28;;;;;;;6.43;4.23;;;20.20;70.40;;;;;;5052687;28;20528;-50
2023/07/04 00:15:56;;;;;;;9.00;4.57;;;20.20;70.50;;;;;;5053029;28;20482;-50
2023/07/04 00:18:25;;;;;;;9.33;4.50;;;20.20;70.60;;;;;;5052671;28;20443;-50
2023/07/04 00:20:54;;;;;;;9.03;4.57;;;20.20;70.80;;;;;;5053066;28;20435;-49
2023/07/04 00:23:23;;;;;;;8.17;4.47;;;20.20;70.80;;;;;;5053002;28;20443;-49
2023/07/04 00:25:50;;;;;;;9.13;4.40;;;20.00;70.70;;;;;;5052789;28;21017;-51
2023/07/04 00:28:16;;;;;;;9.20;5.10;;;19.90;70.70;;;;;;5034544;28;20462;-50
2023/07/04 00:30:44;;;;;;;11.23;5.67;;;20.10;71.30;;;;;;5034883;28;20451;-49
2023/07/04 00:33:13;;;;;;;10.33;5.07;;;20.10;71.30;;;;;;5053018;28;20668;-50
2023/07/04 00:35:40;;;;;;;7.00;3.80;;;20.10;71.30;;;;;;5034762;28;20485;-50
2023/07/04 00:38:06;;;;;;;8.60;4.80;;;20.00;71.20;;;;;;5052437;28;20468;-50
2023/07/04 00:40:34;;;;;;;10.50;5.17;;;20.10;71.50;;;;;;5052551;28;20439;-48
2023/07/04 00:43:03;;;;;;;10.80;4.30;;;19.90;70.80;;;;;;5052617;28;20749;-50
2023/07/04 00:45:32;;;;;;;8.63;4.60;;;20.20;71.60;;;;;;5034502;28;20471;-50
2023/07/04 00:48:01;;;;;;;9.93;5.10;;;20.30;71.90;;;;;;5052509;28;20445;-50
2023/07/04 00:50:31;;;;;;;10.50;5.23;;;20.10;71.70;;;;;;5034222;28;20493;-50
2023/07/04 00:53:02;;;;;;;9.90;5.00;;;20.10;71.60;;;;;;5052352;28;20463;-49
2023/07/04 00:55:30;;;;;;;8.90;4.40;;;19.90;71.40;;;;;;5052165;28;20516;-51
2023/07/04 00:57:58;;;;;;;8.83;3.93;;;20.00;71.70;;;;;;5052244;28;20455;-51
2023/07/04 01:00:25;;;;;;;8.87;4.43;;;20.20;72.20;;;;;;5051852;28;20447;-51
2023/07/04 01:02:54;;;;;;;7.10;4.20;;;19.70;71.60;;;;;;5034330;28;20986;-51
2023/07/04 01:05:32;;;;;;;8.67;4.50;;;20.00;71.90;;;;;;5033857;28;20467;-49
2023/07/04 01:08:03;;;;;;;9.17;4.10;;;20.00;72.00;;;;;;5034256;28;20446;-48
2023/07/04 01:10:32;;;;;;;7.80;4.37;;;19.80;71.70;;;;;;5034137;28;20813;-48
2023/07/04 01:13:01;;;;;;;6.70;4.37;;;19.80;71.80;;;;;;5052214;28;20435;-50
2023/07/04 01:15:29;;;;;;;11.47;5.23;;;20.00;72.20;;;;;;5051948;28;20634;-49
2023/07/04 01:17:57;;;;;;;6.77;3.73;;;20.00;72.30;;;;;;5052072;28;20472;-49
2023/07/04 01:20:25;;;;;;;11.07;4.67;;;20.00;72.40;;;;;;5051485;28;20792;-50
2023/07/04 01:22:58;;;;;;;8.47;4.47;;;19.90;72.20;;;;;;5033733;28;20453;-50
2023/07/04 01:25:31;;;;;;;13.13;5.07;;;19.90;72.40;;;;;;5033606;28;20459;-50
2023/07/04 01:28:02;;;;;;;9.23;4.40;;;19.80;72.40;;;;;;5033828;28;20870;-50
2023/07/04 01:30:33;;;;;;;8.27;4.47;;;20.00;72.40;;;;;;5033861;28;20469;-49
2023/07/04 01:33:00;;;;;;;8.50;4.30;;;20.60;73.30;;;;;;5051662;28;20511;-50
2023/07/04 01:35:28;;;;;;;8.03;5.23;;;19.90;72.70;;;;;;5033694;28;20470;-50
2023/07/04 01:37:56;;;;;;;10.67;4.30;;;20.00;72.70;;;;;;5052036;28;20434;-50
2023/07/04 01:40:24;;;;;;;7.20;4.03;;;20.00;72.80;;;;;;5033497;28;20762;-49
2023/07/04 01:42:51;;;;;;;7.50;5.00;;;20.00;72.60;;;;;;5033602;28;20447;-49
2023/07/04 01:45:20;;;;;;;8.73;3.80;;;20.00;72.70;;;;;;5051500;28;20463;-48
2023/07/04 01:47:48;;;;;;;10.70;4.70;;;19.90;72.60;;;;;;5033618;28;20447;-48
2023/07/04 01:50:15;;;;;;;11.80;4.70;;;19.80;72.60;;;;;;5051285;28;20484;-50
2023/07/04 01:52:43;;;;;;;8.37;3.77;;;19.90;72.60;;;;;;5051405;28;20438;-49
2023/07/04 01:55:11;;;;;;;9.63;4.50;;;19.90;72.60;;;;;;5076046;22;20517;-47
2023/07/04 01:57:38;;;;;;;7.17;3.83;;;19.80;72.50;;;;;;5051919;28;20446;-46
2023/07/04 02:00:08;;;;;;;9.10;4.40;;;19.90;72.60;;;;;;5033458;28;20448;-46
2023/07/04 02:02:56;;;;;;;10.03;5.43;;;20.00;72.70;;;;;;5051650;28;20429;-46
2023/07/04 02:05:22;;;;;;;9.57;4.80;;;20.00;72.70;;;;;;5051792;28;20449;-46
2023/07/04 02:07:49;;;;;;;9.13;4.50;;;19.90;72.80;;;;;;5051859;28;20438;-47
2023/07/04 02:10:16;;;;;;;7.50;3.90;;;19.70;72.60;;;;;;5033642;28;20449;-46
2023/07/04 02:12:43;;;;;;;11.23;4.43;;;19.70;72.60;;;;;;5033994;28;20451;-47
2023/07/04 02:15:11;;;;;;;8.40;4.30;;;19.90;73.10;;;;;;5051650;28;20454;-47
2023/07/04 02:17:38;;;;;;;6.90;4.20;;;19.90;73.10;;;;;;5033945;28;20481;-46
2023/07/04 02:20:08;;;;;;;9.40;4.20;;;19.60;72.90;;;;;;5051817;28;20435;-47
2023/07/04 02:22:34;;;;;;;9.63;5.53;;;19.90;73.30;;;;;;5052145;28;20435;-46
2023/07/04 02:25:02;;;;;;;8.10;4.10;;;19.80;73.40;;;;;;5051745;28;20434;-47
2023/07/04 02:27:29;;;;;;;9.60;4.83;;;19.60;73.20;;;;;;5033686;28;20534;-47
2023/07/04 02:29:56;;;;;;;9.53;5.37;;;19.80;73.50;;;;;;5051353;28;20431;-47
2023/07/04 02:32:22;;;;;;;10.10;4.30;;;19.80;73.40;;;;;;5051503;28;20792;-46
2023/07/04 02:34:50;;;;;;;8.60;4.10;;;19.80;73.50;;;;;;5034490;28;20454;-46
2023/07/04 02:37:18;;;;;;;8.27;4.47;;;19.60;73.50;;;;;;5037764;28;20576;-47
2023/07/04 02:39:44;;;;;;;8.90;4.90;;;19.30;73.30;;;;;;5037004;28;20446;-48
2023/07/04 02:42:12;;;;;;;11.07;5.10;;;19.90;74.30;;;;;;5037389;28;20443;-47
2023/07/04 02:44:39;;;;;;;8.13;5.13;;;19.70;75.00;;;;;;5037707;28;20790;-47
2023/07/04 02:47:06;;;;;;;8.70;4.77;;;19.60;74.30;;;;;;5037310;28;20467;-49
2023/07/04 02:49:37;;;;;;;8.13;4.40;;;19.70;74.40;;;;;;5037066;28;20450;-46
2023/07/04 02:52:06;;;;;;;10.07;5.00;;;20.10;75.00;;;;;;5037809;28;20463;-46
2023/07/04 02:54:34;;;;;;;7.90;4.40;;;19.70;74.50;;;;;;5037417;28;20449;-47
2023/07/04 02:57:01;;;;;;;10.00;4.90;;;19.80;74.60;;;;;;5054991;28;20490;-47
2023/07/04 02:59:28;;;;;;;10.33;4.13;;;19.70;74.60;;;;;;5037059;28;20537;-47
2023/07/04 03:01:54;;;;;;;12.70;4.53;;;19.60;74.40;;;;;;5055585;28;20923;-46
2023/07/04 03:04:22;;;;;;;11.90;5.07;;;19.70;74.60;;;;;;5037451;28;20457;-48
2023/07/04 03:06:50;;;;;;;8.07;4.60;;;19.50;74.50;;;;;;5037386;28;20466;-46
2023/07/04 03:09:16;;;;;;;7.83;4.67;;;19.90;75.00;;;;;;5054833;28;20997;-46
2023/07/04 03:11:44;;;;;;;9.93;5.50;;;19.70;74.70;;;;;;5037201;28;20457;-47
2023/07/04 03:14:11;;;;;;;8.57;5.13;;;19.70;74.80;;;;;;5054865;28;20431;-47
2023/07/04 03:16:38;;;;;;;10.20;5.37;;;20.00;75.10;;;;;;5054465;28;20822;-46
2023/07/04 03:19:06;;;;;;;8.23;5.00;;;19.60;74.80;;;;;;5036440;28;20795;-45
2023/07/04 03:21:32;;;;;;;7.63;4.63;;;19.50;74.80;;;;;;5036697;28;20458;-46
2023/07/04 03:24:02;;;;;;;11.17;5.60;;;19.60;74.90;;;;;;5036655;28;20512;-46
2023/07/04 03:26:29;;;;;;;10.10;5.60;;;19.70;75.20;;;;;;5036458;28;20553;-47
2023/07/04 03:28:58;;;;;;;12.20;5.13;;;19.70;75.40;;;;;;5036049;28;20451;-47
2023/07/04 03:31:24;;;;;;;10.53;5.63;;;19.70;75.50;;;;;;5036248;28;20455;-47
2023/07/04 03:33:51;;;;;;;7.80;4.90;;;19.70;75.60;;;;;;5036600;28;21001;-47
2023/07/04 03:36:18;;;;;;;15.43;5.57;;;19.70;75.60;;;;;;5036379;28;20489;-48
2023/07/04 03:38:44;;;;;;;9.93;5.00;;;19.80;75.80;;;;;;5035960;28;20975;-47
2023/07/04 03:41:11;;;;;;;10.07;5.23;;;19.80;76.10;;;;;;5054243;28;20453;-46
2023/07/04 03:43:37;;;;;;;7.53;4.90;;;19.80;76.20;;;;;;5036085;28;20443;-49
2023/07/04 03:46:05;;;;;;;13.50;6.20;;;19.60;76.00;;;;;;5053667;28;20620;-47
2023/07/04 03:48:32;;;;;;;10.40;5.20;;;19.60;76.10;;;;;;5035619;28;20447;-47
2023/07/04 03:50:59;;;;;;;10.70;5.70;;;19.60;76.40;;;;;;5054007;28;20438;-46
2023/07/04 03:53:27;;;;;;;11.37;4.57;;;20.00;76.80;;;;;;5036116;28;20501;-46
2023/07/04 03:55:53;;;;;;;10.00;5.47;;;19.60;76.60;;;;;;5053607;28;20486;-45
2023/07/04 03:58:20;;;;;;;12.43;5.03;;;19.60;76.60;;;;;;5053358;28;20434;-46
2023/07/04 04:00:47;;;;;;;8.87;4.90;;;19.60;76.70;;;;;;5035812;28;20450;-47
2023/07/04 04:03:15;;;;;;;11.77;5.13;;;19.60;76.70;;;;;;5054089;28;20462;-46
2023/07/04 04:05:42;;;;;;;10.17;5.10;;;19.70;76.80;;;;;;5035724;28;20481;-47
2023/07/04 04:08:09;;;;;;;9.73;5.83;;;19.50;76.50;;;;;;5053634;28;20453;-47
2023/07/04 04:10:36;;;;;;;8.63;6.00;;;20.00;76.80;;;;;;5054373;28;20439;-47
2023/07/04 04:13:02;;;;;;;10.13;5.53;;;19.80;76.30;;;;;;5053800;28;20441;-47
2023/07/04 04:15:29;;;;;;;8.97;5.10;;;19.60;75.80;;;;;;5053295;28;20859;-46
2023/07/04 04:17:56;;;;;;;10.67;5.50;;;20.00;76.10;;;;;;5053662;28;20442;-47
2023/07/04 04:20:25;;;;;;;10.70;5.10;;;20.00;75.70;;;;;;5053066;28;20467;-47
2023/07/04 04:22:51;;;;;;;17.87;6.07;;;19.90;75.30;;;;;;5053545;28;20491;-47
2023/07/04 04:25:18;;;;;;;8.93;5.10;;;20.20;75.30;;;;;;5053032;28;20462;-46
2023/07/04 04:27:46;;;;;;;8.27;4.10;;;20.50;75.00;;;;;;5053186;28;20431;-46
2023/07/04 04:30:13;;;;;;;11.00;5.20;;;20.40;74.40;;;;;;5052914;28;20522;-48
2023/07/04 04:32:41;;;;;;;11.23;4.90;;;20.60;74.10;;;;;;5053195;28;20427;-46
2023/07/04 04:35:09;;;;;;;11.53;4.90;;;20.60;73.70;;;;;;5053006;28;20439;-46
2023/07/04 04:37:37;;;;;;;9.13;4.80;;;20.70;73.40;;;;;;5053047;28;20481;-47
2023/07/04 04:40:05;;;;;;;17.03;5.37;;;20.80;72.90;;;;;;5052601;28;20432;-47
2023/07/04 04:42:34;;;;;;;10.33;5.70;;;20.90;72.90;;;;;;5053071;28;20444;-47
2023/07/04 04:45:01;;;;;;;9.60;5.90;;;20.80;72.40;;;;;;5052848;28;20929;-48
2023/07/04 04:47:32;;;;;;;11.53;5.83;;;21.20;72.70;;;;;;5052843;28;20476;-46
2023/07/04 04:50:00;;;;;;;10.00;5.67;;;21.20;72.40;;;;;;5034700;28;20449;-48
2023/07/04 04:52:29;;;;;;;7.63;5.33;;;21.30;73.00;;;;;;5052754;28;20823;-47
2023/07/04 04:54:57;;;;;;;10.53;4.57;;;21.20;72.30;;;;;;5052894;28;20846;-48
2023/07/04 04:57:23;;;;;;;10.57;5.30;;;21.20;72.30;;;;;;5052335;28;20476;-47
2023/07/04 04:59:51;;;;;;;9.63;5.80;;;21.20;72.30;;;;;;5051494;28;20866;-47
2023/07/04 05:02:17;;;;;;;10.90;6.03;;;21.30;72.50;;;;;;5052647;28;20438;-48
2023/07/04 05:04:44;;;;;;;7.47;4.97;;;21.30;72.30;;;;;;5052664;28;20452;-47
2023/07/04 05:07:12;;;;;;;14.60;5.57;;;21.30;72.10;;;;;;5052298;28;20476;-47
2023/07/04 05:09:38;;;;;;;9.50;5.10;;;21.40;72.00;;;;;;5034212;28;20446;-47
2023/07/04 05:12:07;;;;;;;10.67;5.53;;;21.40;71.90;;;;;;5052336;28;20844;-45
2023/07/04 05:14:33;;;;;;;12.00;6.30;;;21.50;71.90;;;;;;5052265;28;20438;-47
2023/07/04 05:17:00;;;;;;;10.30;4.90;;;21.50;72.00;;;;;;5052171;28;20474;-47
2023/07/04 05:19:27;;;;;;;10.50;5.17;;;21.20;71.50;;;;;;5051826;28;20816;-47
2023/07/04 05:21:54;;;;;;;9.63;5.20;;;21.40;71.80;;;;;;5052095;28;20442;-48
2023/07/04 05:24:20;;;;;;;11.80;5.50;;;21.50;71.60;;;;;;5034264;28;20441;-47
2023/07/04 05:26:47;;;;;;;8.57;5.53;;;21.60;71.60;;;;;;5052610;28;20821;-46
2023/07/04 05:29:15;;;;;;;11.37;5.57;;;21.60;71.70;;;;;;5051895;28;20446;-47
2023/07/04 05:31:41;;;;;;;9.43;5.20;;;21.70;71.60;;;;;;5034283;28;20481;-47
2023/07/04 05:34:08;;;;;;;6.40;4.77;;;21.60;71.30;;;;;;5052626;28;20519;-49
2023/07/04 05:36:37;;;;;;;9.17;5.90;;;21.60;71.10;;;;;;5052130;28;20489;-46
2023/07/04 05:39:06;;;;;;;10.27;5.47;;;21.70;71.40;;;;;;5051576;28;20434;-47
2023/07/04 05:41:35;;;;;;;13.77;5.60;;;21.80;71.30;;;;;;5052068;28;20942;-47
2023/07/04 05:44:03;;;;;;;12.40;5.97;;;21.80;71.10;;;;;;5052007;28;20772;-46
2023/07/04 05:46:32;;;;;;;8.53;4.77;;;21.90;71.30;;;;;;5051673;28;20463;-46
2023/07/04 05:48:59;;;;;;;11.80;6.30;;;22.00;71.30;;;;;;5051633;28;20426;-48
2023/07/04 05:51:26;;;;;;;9.13;5.03;;;22.20;71.40;;;;;;5051563;28;21011;-46
2023/07/04 05:53:53;;;;;;;8.50;4.70;;;22.30;71.30;;;;;;5051761;28;20442;-47
2023/07/04 05:56:22;;;;;;;13.50;5.87;;;22.50;71.00;;;;;;5051578;28;20477;-48
2023/07/04 05:58:51;;;;;;;12.23;5.83;;;22.60;70.80;;;;;;5051233;28;20436;-48
2023/07/04 06:01:21;;;;;;;12.67;6.27;;;22.50;70.80;;;;;;5033230;28;20507;-46
2023/07/04 06:03:49;;;;;;;12.13;5.53;;;22.60;70.90;;;;;;5051959;28;20433;-47
2023/07/04 06:06:19;;;;;;;12.57;6.20;;;22.50;70.70;;;;;;5033599;28;20474;-47
2023/07/04 06:08:46;;;;;;;12.57;5.73;;;22.60;70.80;;;;;;5051371;28;20469;-46
2023/07/04 06:11:13;;;;;;;12.17;4.73;;;22.60;70.90;;;;;;5054705;28;20449;-47
2023/07/04 06:13:41;;;;;;;8.97;5.17;;;22.60;70.80;;;;;;5055811;28;20427;-47
2023/07/04 06:16:08;;;;;;;9.50;4.80;;;22.60;70.80;;;;;;5055472;28;20568;-48
2023/07/04 06:18:35;;;;;;;10.53;4.43;;;22.60;70.80;;;;;;5056361;28;20445;-48
2023/07/04 06:21:12;;;;;;;12.07;4.53;;;22.60;70.70;;;;;;5055174;28;20449;-49
2023/07/04 06:23:40;;;;;;;10.57;4.13;;;22.70;70.60;;;;;;5055388;28;20453;-48
2023/07/04 06:26:08;;;;;;;7.70;4.20;;;22.70;70.90;;;;;;5055174;28;20483;-50
2023/07/04 06:28:35;;;;;;;13.10;4.47;;;22.60;70.80;;;;;;5055023;28;20444;-50
2023/07/04 06:31:04;;;;;;;9.03;4.53;;;22.60;70.70;;;;;;5055778;28;20449;-48
2023/07/04 06:33:31;;;;;;;9.93;4.73;;;22.50;70.70;;;;;;5055182;28;20814;-49
2023/07/04 06:35:58;;;;;;;9.10;5.33;;;22.70;70.80;;;;;;5055388;28;20459;-49
2023/07/04 06:38:26;;;;;;;13.53;4.50;;;22.70;70.70;;;;;;5054648;28;20487;-50
2023/07/04 06:40:57;;;;;;;9.47;4.30;;;22.70;70.70;;;;;;5054820;28;20907;-50
2023/07/04 06:43:24;;;;;;;8.90;3.90;;;22.70;71.00;;;;;;5054579;28;20438;-49
2023/07/04 06:45:50;;;;;;;17.70;7.70;;;22.50;71.30;;;;;;5054983;28;20455;-50
2023/07/04 06:48:17;;;;;;;9.67;4.57;;;22.50;71.40;;;;;;5054663;28;20794;-50
2023/07/04 06:50:45;;;;;;;14.10;6.33;;;22.50;70.90;;;;;;5054741;28;20427;-49
2023/07/04 06:53:12;;;;;;;7.47;4.07;;;22.50;71.00;;;;;;5054504;28;20857;-49
2023/07/04 06:55:40;;;;;;;15.40;4.20;;;22.60;70.90;;;;;;5054162;28;20471;-51
2023/07/04 06:58:07;;;;;;;9.20;3.77;;;22.60;70.80;;;;;;5054382;28;20484;-49
2023/07/04 07:00:33;;;;;;;7.57;3.90;;;22.60;70.70;;;;;;5054429;28;20531;-50
2023/07/04 07:03:00;;;;;;;7.23;4.40;;;22.70;70.90;;;;;;5054313;28;20800;-49
2023/07/04 07:05:27;;;;;;;8.10;3.27;;;22.70;70.60;;;;;;5054483;28;20784;-49
2023/07/04 07:07:53;;;;;;;9.63;3.50;;;22.70;70.50;;;;;;5036577;28;20490;-50
2023/07/04 07:10:20;;;;;;;6.23;3.10;;;22.70;70.50;;;;;;5054019;28;20488;-48
2023/07/04 07:12:47;;;;;;;7.40;4.00;;;22.80;70.10;;;;;;5054472;28;20438;-50
2023/07/04 07:15:14;;;;;;;7.40;2.97;;;22.80;70.00;;;;;;5054639;28;20442;-49
2023/07/04 07:17:41;;;;;;;12.37;3.57;;;22.80;70.10;;;;;;5054556;28;20504;-50
2023/07/04 07:20:08;;;;;;;8.10;3.07;;;22.80;69.80;;;;;;5053971;28;20540;-49
2023/07/04 07:22:35;;;;;;;7.40;3.30;;;22.90;69.80;;;;;;5052719;28;20533;-49
2023/07/04 07:25:01;;;;;;;12.80;3.70;;;22.90;69.90;;;;;;5054535;28;20436;-49
2023/07/04 07:27:28;;;;;;;8.97;3.20;;;22.80;69.60;;;;;;5053990;28;20456;-49
2023/07/04 07:29:56;;;;;;;6.67;2.87;;;23.00;69.50;;;;;;5053503;28;20439;-50
2023/07/04 07:32:23;;;;;;;9.93;3.83;;;23.00;69.20;;;;;;5053893;28;20432;-49
2023/07/04 07:34:49;;;;;;;7.00;3.60;;;23.20;69.20;;;;;;5054122;28;20939;-50
2023/07/04 07:37:16;;;;;;;5.10;3.37;;;23.30;68.70;;;;;;5053666;28;20846;-49
2023/07/04 07:39:42;;;;;;;7.10;3.63;;;23.30;68.30;;;;;;5053449;28;20433;-49
2023/07/04 07:42:10;;;;;;;8.63;4.47;;;22.80;67.60;;;;;;5053569;28;20435;-50
2023/07/04 07:44:37;;;;;;;7.40;3.53;;;23.40;68.70;;;;;;5036069;28;20444;-49
2023/07/04 07:47:06;;;;;;;14.20;12.37;;;23.40;68.60;;;;;;5053965;28;20467;-49
2023/07/04 07:49:32;;;;;;;12.60;6.33;;;23.40;68.60;;;;;;5053144;28;20959;-49
2023/07/04 07:51:59;;;;;;;7.40;3.20;;;23.40;68.30;;;;;;5053760;28;20441;-51
2023/07/04 07:54:25;;;;;;;9.30;3.90;;;23.40;67.60;;;;;;5054334;28;20454;-48
2023/07/04 07:56:52;;;;;;;9.33;3.73;;;23.30;67.00;;;;;;5077936;22;20579;-49
2023/07/04 07:59:20;;;;;;;8.63;3.30;;;23.40;66.80;;;;;;5053413;28;20440;-51
2023/07/04 08:01:47;;;;;;;9.63;4.20;;;23.60;66.90;;;;;;5053067;28;20519;-50
2023/07/04 08:04:15;;;;;;;5.60;3.73;;;23.50;66.20;;;;;;5053765;28;20456;-50
2023/07/04 08:06:43;;;;;;;7.47;3.40;;;23.70;65.90;;;;;;5053208;28;20452;-50
2023/07/04 08:09:12;;;;;;;5.87;3.17;;;23.70;65.70;;;;;;5052878;28;20924;-49
2023/07/04 08:11:40;;;;;;;8.53;3.30;;;23.70;65.60;;;;;;5034794;28;20447;-51
2023/07/04 08:14:07;;;;;;;8.17;3.20;;;23.80;65.70;;;;;;5053332;28;20434;-50
2023/07/04 08:16:43;;;;;;;6.63;3.10;;;23.80;65.60;;;;;;5052493;28;20984;-50
2023/07/04 08:19:09;;;;;;;10.23;3.70;;;23.50;65.00;;;;;;5052352;28;20477;-51
2023/07/04 08:21:37;;;;;;;10.83;4.43;;;23.80;65.70;;;;;;5052984;28;20444;-51
2023/07/04 08:24:10;;;;;;;6.33;3.43;;;23.80;65.60;;;;;;5052729;28;20490;-49
2023/07/04 08:26:37;;;;;;;18.87;15.07;;;23.70;65.50;;;;;;5052886;28;20663;-51
2023/07/04 08:29:05;;;;;;;9.43;4.70;;;23.70;65.40;;;;;;5052195;28;20533;-49
2023/07/04 08:31:33;;;;;;;6.23;2.80;;;23.70;65.40;;;;;;5052681;28;20446;-51
2023/07/04 08:33:59;;;;;;;13.83;3.43;;;23.70;64.90;;;;;;5052527;28;20483;-50
2023/07/04 08:36:26;;;;;;;8.10;3.40;;;23.70;64.50;;;;;;5052426;28;20838;-50
2023/07/04 08:38:54;;;;;;;6.20;2.80;;;23.80;64.60;;;;;;5052116;28;20984;-51
2023/07/04 08:41:28;;;;;;;4.60;2.60;;;23.90;64.20;;;;;;5052524;28;20433;-50
2023/07/04 08:43:58;;;;;;;8.30;3.23;;;23.80;63.60;;;;;;5052818;28;20861;-51
2023/07/04 08:46:25;;;;;;;8.07;3.07;;;24.10;63.60;;;;;;5052380;28;20821;-51
2023/07/04 08:48:53;;;;;;;7.50;3.10;;;24.10;63.50;;;;;;5051789;28;20437;-50
2023/07/04 08:51:29;;;;;;;7.00;3.00;;;24.20;63.60;;;;;;5052163;28;20514;-51
2023/07/04 08:54:01;;;;;;;7.97;3.23;;;24.20;63.50;;;;;;5052151;28;20473;-51
2023/07/04 08:56:34;;;;;;;8.50;3.43;;;24.20;63.70;;;;;;5033941;28;20485;-50
2023/07/04 08:59:10;;;;;;;5.43;3.23;;;24.10;63.80;;;;;;5052265;28;20492;-51
2023/07/04 09:01:58;;;;;;;9.20;3.70;;;24.20;63.60;;;;;;5052023;28;20434;-49
2023/07/04 09:04:35;;;;;;;4.67;3.20;;;24.30;63.50;;;;;;5052631;28;20480;-50
2023/07/04 09:07:10;;;;;;;6.67;2.60;;;24.10;63.20;;;;;;5051783;28;20508;-50
2023/07/04 09:09:46;;;;;;;5.40;2.30;;;24.30;62.60;;;;;;5051299;28;20467;-50
2023/07/04 09:12:13;;;;;;;5.77;3.20;;;24.60;62.00;;;;;;5033881;28;20446;-50
2023/07/04 09:14:46;;;;;;;8.60;3.77;;;24.40;61.50;;;;;;5051858;28;20430;-50
2023/07/04 09:17:31;;;;;;;5.47;2.47;;;24.40;59.90;;;;;;5051634;28;20472;-50
2023/07/04 09:19:59;;;;;;;6.23;2.93;;;24.50;59.70;;;;;;5051266;28;20927;-49
2023/07/04 09:22:26;;;;;;;6.47;2.30;;;24.40;59.70;;;;;;5051463;28;20430;-50
2023/07/04 09:24:54;;;;;;;4.30;2.00;;;24.40;59.70;;;;;;5051849;28;20441;-51
2023/07/04 09:27:21;;;;;;;5.37;2.53;;;24.40;59.30;;;;;;5051492;28;20982;-50
2023/07/04 09:29:48;;;;;;;9.23;3.10;;;24.50;58.80;;;;;;5051051;28;20442;-49
2023/07/04 09:32:16;;;;;;;7.93;2.63;;;24.60;58.10;;;;;;5051654;28;20436;-50
2023/07/04 09:34:47;;;;;;;6.83;2.70;;;24.50;58.40;;;;;;5051311;28;20431;-50
2023/07/04 09:37:17;;;;;;;7.17;2.93;;;24.60;58.70;;;;;;5051437;28;20986;-51
2023/07/04 09:39:49;;;;;;;5.30;2.60;;;24.70;58.70;;;;;;5051028;28;20441;-49
2023/07/04 09:42:18;;;;;;;6.43;2.20;;;24.30;58.20;;;;;;5051611;28;20470;-51
2023/07/04 09:44:46;;;;;;;5.77;2.50;;;24.40;58.40;;;;;;5051024;28;20487;-50
2023/07/04 09:47:22;;;;;;;8.43;3.30;;;24.30;58.60;;;;;;5033234;28;20477;-50
2023/07/04 09:50:07;;;;;;;10.90;3.00;;;24.30;58.80;;;;;;5032884;28;20443;-49
2023/07/04 09:52:33;;;;;;;5.70;2.50;;;24.20;59.20;;;;;;5051411;28;20434;-50
2023/07/04 09:55:09;;;;;;;4.00;2.07;;;24.20;59.30;;;;;;5051893;28;20449;-49
2023/07/04 09:57:37;;;;;;;3.93;2.33;;;24.20;59.00;;;;;;5033256;28;20478;-51
2023/07/04 10:00:20;;;;;;;4.93;2.50;;;24.10;59.10;;;;;;5051081;28;20426;-51
2023/07/04 10:02:47;;;;;;;4.40;2.23;;;24.10;59.10;;;;;;5033676;28;20541;-49
2023/07/04 10:05:26;;;;;;;6.97;2.43;;;24.10;59.40;;;;;;5051375;28;20441;-49
2023/07/04 10:08:01;;;;;;;12.60;3.10;;;24.10;59.40;;;;;;5051211;28;20440;-50
2023/07/04 10:10:30;;;;;;;6.27;2.30;;;24.10;59.10;;;;;;5051297;28;20437;-50
2023/07/04 10:12:58;;;;;;;7.67;2.40;;;24.10;58.70;;;;;;5051588;28;20442;-49
2023/07/04 10:15:26;;;;;;;19.43;13.17;;;24.20;58.60;;;;;;5051423;28;20452;-50
2023/07/04 10:17:53;;;;;;;7.75;3.50;;;24.30;58.00;;;;;;5050755;28;20446;-51
2023/07/04 10:20:21;;;;;;;4.37;2.47;;;24.40;57.50;;;;;;5050962;28;20200;-50
2023/07/04 10:22:52;;;;;;;6.47;2.20;;;24.40;57.10;;;;;;5051405;28;20438;-49
2023/07/04 10:25:21;;;;;;;5.03;2.00;;;24.40;57.20;;;;;;5051355;28;20461;-49
2023/07/04 10:27:52;;;;;;;8.67;3.70;;;24.50;57.30;;;;;;5051003;28;20805;-50
2023/07/04 10:30:22;;;;;;;7.13;2.37;;;24.60;57.20;;;;;;5051169;28;20444;-50
2023/07/04 10:32:53;;;;;;;6.90;2.20;;;24.60;56.90;;;;;;5051485;28;20438;-51
2023/07/04 10:35:23;;;;;;;4.63;2.43;;;24.70;57.00;;;;;;5051598;28;20435;-50
2023/07/04 10:37:54;;;;;;;7.10;2.67;;;24.70;56.90;;;;;;5051195;28;20434;-51
2023/07/04 10:40:21;;;;;;;5.43;2.57;;;24.90;56.70;;;;;;5051216;28;20439;-50
2023/07/04 10:42:54;;;;;;;6.20;2.43;;;25.10;56.80;;;;;;5033315;28;20870;-49
2023/07/04 10:45:24;;;;;;;11.97;2.50;;;25.20;56.50;;;;;;5051220;28;20447;-50
2023/07/04 10:47:54;;;;;;;5.30;2.57;;;25.30;56.10;;;;;;5051070;28;20438;-51
2023/07/04 10:50:27;;;;;;;4.37;2.50;;;25.40;56.10;;;;;;5050837;28;20463;-51
2023/07/04 10:52:53;;;;;;;6.17;2.43;;;25.40;55.80;;;;;;5051515;28;20457;-49
2023/07/04 10:55:25;;;;;;;7.43;2.60;;;25.20;55.50;;;;;;5050830;28;20427;-51
2023/07/04 10:57:59;;;;;;;4.47;2.57;;;25.40;55.50;;;;;;5054461;28;20459;-49
2023/07/04 11:00:34;;;;;;;3.00;2.17;;;25.50;55.50;;;;;;5054155;28;20561;-48
2023/07/04 11:03:05;;;;;;;7.70;2.80;;;25.50;55.40;;;;;;5054398;28;20441;-50
2023/07/04 11:05:35;;;;;;;4.67;2.50;;;25.40;55.60;;;;;;5036615;28;20442;-50
2023/07/04 11:08:03;;;;;;;5.77;2.73;;;25.40;55.60;;;;;;5054571;28;20546;-49
2023/07/04 11:10:32;;;;;;;8.30;2.73;;;25.20;55.70;;;;;;5054123;28;20454;-51
2023/07/04 11:13:00;;;;;;;5.90;2.90;;;25.20;55.90;;;;;;5054045;28;20447;-50
2023/07/04 11:15:34;;;;;;;7.70;2.47;;;25.10;55.90;;;;;;5054179;28;20430;-51
2023/07/04 11:18:01;;;;;;;8.50;3.33;;;25.10;56.30;;;;;;5053935;28;20448;-49
2023/07/04 11:20:51;;;;;;;6.60;2.60;;;25.00;56.30;;;;;;5053685;28;20443;-50
2023/07/04 11:23:21;;;;;;;8.03;2.80;;;25.10;56.60;;;;;;5054275;28;20448;-51
2023/07/04 11:26:07;;;;;;;6.27;3.50;;;24.90;56.70;;;;;;5054001;28;20458;-51
2023/07/04 11:28:45;;;;;;;9.30;4.20;;;25.20;57.00;;;;;;5053650;28;20919;-50
2023/07/04 11:31:21;;;;;;;6.20;2.80;;;25.10;56.90;;;;;;5053987;28;20433;-51
2023/07/04 11:34:10;;;;;;;5.67;2.87;;;25.20;57.10;;;;;;5054118;28;20875;-50
2023/07/04 11:36:42;;;;;;;8.67;3.00;;;25.20;57.10;;;;;;5053594;28;20540;-50
2023/07/04 11:39:31;;;;;;;7.87;3.40;;;25.10;57.20;;;;;;5053124;28;21036;-48
2023/07/04 11:41:59;;;;;;;7.60;3.07;;;25.10;57.30;;;;;;5053881;28;20770;-50
2023/07/04 11:44:29;;;;;;;5.57;3.40;;;24.90;57.40;;;;;;5053486;28;20430;-50
2023/07/04 11:47:00;;;;;;;7.37;3.53;;;24.80;57.50;;;;;;5053321;28;20447;-51
2023/07/04 11:49:29;;;;;;;8.00;3.33;;;24.60;57.70;;;;;;5053387;28;20933;-49
2023/07/04 11:52:06;;;;;;;5.53;2.97;;;24.50;57.80;;;;;;5053346;28;20434;-51
2023/07/04 11:54:34;;;;;;;11.13;3.10;;;24.30;58.50;;;;;;5053584;28;20471;-50
2023/07/04 11:57:01;;;;;;;11.30;4.27;;;24.60;58.40;;;;;;5052793;28;20835;-50
2023/07/04 11:59:38;;;;;;;9.87;3.33;;;24.50;58.40;;;;;;5052669;28;20545;-50
2023/07/04 12:02:33;;;;;;;8.50;3.63;;;24.50;57.70;;;;;;5053377;28;20488;-49
2023/07/04 12:05:02;;;;;;;7.90;3.30;;;24.80;57.50;;;;;;5045583;28;20450;-49
2023/07/04 12:07:47;;;;;;;8.90;2.93;;;24.90;57.40;;;;;;5052610;28;20466;-50
2023/07/04 12:10:18;;;;;;;8.47;3.93;;;25.10;57.30;;;;;;5052630;28;20438;-50
2023/07/04 12:12:45;;;;;;;6.23;3.07;;;25.20;57.10;;;;;;5052922;28;20434;-51
2023/07/04 12:15:14;;;;;;;6.87;3.50;;;25.30;56.90;;;;;;5053222;28;20476;-51
2023/07/04 12:17:42;;;;;;;7.40;3.33;;;25.50;57.00;;;;;;5052854;28;20462;-51
2023/07/04 12:20:13;;;;;;;8.30;3.97;;;25.60;56.90;;;;;;5052357;28;20486;-50
2023/07/04 12:22:45;;;;;;;7.17;4.73;;;25.70;57.00;;;;;;5052735;28;20437;-50
2023/07/04 12:25:20;;;;;;;7.80;3.47;;;25.80;56.80;;;;;;5052686;28;20441;-49
2023/07/04 12:27:46;;;;;;;7.70;3.20;;;26.00;56.40;;;;;;5052951;28;20799;-52
2023/07/04 12:30:14;;;;;;;8.02;3.50;;;25.90;56.30;;;;;;5052031;28;20431;-50
2023/07/04 12:32:41;;;;;;;8.97;3.00;;;26.20;55.70;;;;;;5052349;28;20235;-51
2023/07/04 12:35:13;;;;;;;6.70;3.80;;;26.10;56.00;;;;;;5052746;28;20443;-51
2023/07/04 12:37:45;;;;;;;8.60;3.00;;;26.10;56.10;;;;;;5052566;28;20442;-50
2023/07/04 12:40:16;;;;;;;10.73;4.07;;;26.00;55.80;;;;;;5052274;28;20467;-50
2023/07/04 12:42:44;;;;;;;7.57;3.80;;;25.80;55.50;;;;;;5052553;28;20482;-51
2023/07/04 12:45:16;;;;;;;6.03;3.80;;;25.70;55.80;;;;;;5052253;28;20434;-51
2023/07/04 12:47:44;;;;;;;7.20;3.30;;;25.50;56.10;;;;;;5052272;28;20977;-51
2023/07/04 12:50:13;;;;;;;6.57;3.70;;;25.30;56.10;;;;;;5052191;28;20450;-50
2023/07/04 12:52:40;;;;;;;12.70;3.80;;;25.00;56.40;;;;;;5052418;28;20441;-48